Home > Products > Valid Products > MTR

000
SAUS43 KBIS 250653
MTRN60
METAR KN60 250652Z AUTO 29007KT 06/M01 A3005 RMK AO1 SLP183
T00611006





000
SAUS43 KBIS 250554
MTRN60
METAR KN60 250552Z AUTO 29009KT 08/M01 A3004 RMK AO1 SLP175
T00781011 10117 20061 401890044 51015





000
SAUS43 KBIS 250454
MTRN60
METAR KN60 250452Z AUTO 31009KT 07/M01 A3002 RMK AO1 SLP173
T00671011





000
SAUS43 KBIS 250354
MTRN60
METAR KN60 250352Z AUTO 31010KT 09/M02 A3001 RMK AO1 SLP168
T00941017





000
SAUS43 KBIS 250354
MTRN60
METAR KN60 250352Z AUTO 31010KT 09/M02 A3001 RMK AO1 SLP168
T00941017





000
SAUS43 KBIS 250254
MTRN60
METAR KN60 250252Z AUTO 29011KT 11/M02 A2999 RMK AO1 SLP164
T01061017 51014





000
SAUS43 KBIS 250154
MTRN60
METAR KN60 250152Z AUTO 29009KT 11/M01 A2999 RMK AO1 SLP165
T01111011





000
SAUS43 KBIS 250053
MTRN60
METAR KN60 250052Z AUTO 29009KT 11/M01 A2997 RMK AO1 SLP161
T01111011





000
SAUS43 KBIS 242354
MTRN60
METAR KN60 242352Z AUTO 28008KT 12/M01 A2995 RMK AO1 SLP150
T01171006 10189 20117 53019





000
SAUS43 KBIS 242254
MTRN60
METAR KN60 242252Z AUTO 30015KT 16/M01 A2992 RMK AO1 SLP138
T01561011





000
SAUS43 KBIS 242154
MTRN60
METAR KN60 242152Z AUTO 29015G20KT 17/M01 A2991 RMK AO1 PK WND
29030/2057 SLP134 T01721011





000
SAUS43 KBIS 242054
MTRN60
METAR KN60 242052Z AUTO 28019G29KT 18/M02 A2989 RMK AO1 PK WND
30030/2035 SLP125 T01831022 53005





000
SAUS43 KBIS 241954
MTRN60
METAR KN60 241952Z AUTO 30022G31KT 19/M01 A2988 RMK AO1 PK WND
29034/1856 SLP121 T01891011





000
SAUS43 KBIS 241954
MTRN60
METAR KN60 241952Z AUTO 30022G31KT 19/M01 A2988 RMK AO1 PK WND
29034/1856 SLP121 T01891011





000
SAUS43 KBIS 241854
MTRN60
METAR KN60 241852Z AUTO 28023G32KT 18/M01 A2987 RMK AO1 PK WND
31034/1817 SLP118 T01831006





000
SAUS43 KBIS 241754
MTRN60
METAR KN60 241752Z AUTO 29019G28KT 18/02 A2988 RMK AO1 PK WND
30031/1741 SLP120 T01830017 10183 20044 50009





000
SAUS43 KBIS 241653
MTRN60
METAR KN60 241652Z AUTO 29019G28KT 17/03 A2988 RMK AO1 PK WND
31034/1639 SLP122 T01720028





000
SAUS43 KBIS 241554
MTRN60
METAR KN60 241552Z AUTO 28010KT 13/05 A2988 RMK AO1 SLP125 T01330050





000
SAUS43 KBIS 241453
MTRN60
METAR KN60 241452Z AUTO 25005KT 09/06 A2985 RMK AO1 SLP114 T00940056
53011





000
SAUS43 KBIS 241354
MTRN60
METAR KN60 241352Z AUTO 17003KT 05/03 A2983 RMK AO1 SLP112 T00500028





000
SAUS43 KBIS 241253
MTRN60
METAR KN60 241252Z AUTO 00000KT 06/03 A2981 RMK AO1 SLP105 T00560033





000
SAUS43 KBIS 241154
MTRN60
METAR KN60 241152Z AUTO 27003KT 07/04 A2981 RMK AO1 SLP103 T00720039
10089 20056 53006





000
SAUS43 KBIS 241053
MTRN60
METAR KN60 241052Z AUTO 00000KT 07/03 A2979 RMK AO1 SLP092 T00670033





000
SAUS43 KBIS 241053
MTRN60
METAR KN60 241052Z AUTO 00000KT 07/03 A2979 RMK AO1 SLP092 T00670033





000
SAUS43 KBIS 240954
MTRN60
METAR KN60 240952Z AUTO 26006KT 07/03 A2978 RMK AO1 SLP088 T00670033





000
SAUS43 KBIS 240854
MTRN60
METAR KN60 240852Z AUTO 27007KT 07/03 A2979 RMK AO1 SLP090 T00670033
53001





000
SAUS43 KBIS 240754
MTRN60
METAR KN60 240752Z AUTO 27006KT 08/03 A2978 RMK AO1 SLP088 T00780033





000
SAUS43 KBIS 240653
MTRN60
METAR KN60 240652Z AUTO 24005KT 08/04 A2978 RMK AO1 SLP089 T00780039





000
SAUS43 KBIS 240553
MTRN60
METAR KN60 240552Z AUTO 00000KT 07/02 A2979 RMK AO1 SLP091 T00720022
10122 20072 402110022 53003





000
SAUS43 KBIS 240453
MTRN60
METAR KN60 240452Z AUTO 00000KT 09/02 A2978 RMK AO1 SLP090 T00940017





000
SAUS43 KBIS 240453
MTRN60
METAR KN60 240452Z AUTO 00000KT 09/02 A2978 RMK AO1 SLP090 T00940017





000
SAUS43 KBIS 240354
MTRN60
METAR KN60 240352Z AUTO 30004KT 08/01 A2978 RMK AO1 SLP093 T00830011





000
SAUS43 KBIS 240354
MTRN60
METAR KN60 240352Z AUTO 30004KT 08/01 A2978 RMK AO1 SLP093 T00830011





000
SAUS43 KBIS 240253
MTRN60
METAR KN60 240252Z AUTO 29005KT 10/02 A2978 RMK AO1 SLP093 T01000017
51006





000
SAUS43 KBIS 240253
MTRN60
METAR KN60 240252Z AUTO 29005KT 10/02 A2978 RMK AO1 SLP093 T01000017
51006





000
SAUS43 KBIS 240154
MTRN60
METAR KN60 240152Z AUTO 23006KT 10/03 A2977 RMK AO1 SLP092 T01000028





000
SAUS43 KBIS 240154
MTRN60
METAR KN60 240152Z AUTO 23006KT 10/03 A2977 RMK AO1 SLP092 T01000028





000
SAUS43 KBIS 240053
MTRN60
METAR KN60 240052Z AUTO 26008KT 10/02 A2978 RMK AO1 SLP095 T01000017





000
SAUS43 KBIS 232354
MTRN60
METAR KN60 232352Z AUTO 25007KT 11/02 A2976 RMK AO1 SLP087 T01110022
10211 20106 56007





000
SAUS43 KBIS 232253
MTRN60
METAR KN60 232252Z AUTO 24005KT 15/03 A2976 RMK AO1 SLP085 T01500028





000
SAUS43 KBIS 232154
MTRN60
METAR KN60 232152Z AUTO 24006KT 19/02 A2977 RMK AO1 SLP086 T01940022





000
SAUS43 KBIS 232154
MTRN60
METAR KN60 232152Z AUTO 24006KT 19/02 A2977 RMK AO1 SLP086 T01940022





000
SAUS43 KBIS 232053
MTRN60
METAR KN60 232052Z AUTO 21006KT 20/03 A2978 RMK AO1 SLP089 T02000033
56016





000
SAUS43 KBIS 231954
MTRN60
METAR KN60 231952Z AUTO 23010KT 18/02 A2979 RMK AO1 SLP091 T01780022





000
SAUS43 KBIS 231954
MTRN60
METAR KN60 231952Z AUTO 23010KT 18/02 A2979 RMK AO1 SLP091 T01780022





000
SAUS43 KBIS 231853
MTRN60
METAR KN60 231852Z AUTO 20008KT 18/04 A2981 RMK AO1 SLP099 T01780039





000
SAUS43 KBIS 231853
MTRN60
METAR KN60 231852Z AUTO 20008KT 18/04 A2981 RMK AO1 SLP099 T01780039





000
SAUS43 KBIS 231754
MTRN60
METAR KN60 231752Z AUTO 21009KT 16/02 A2983 RMK AO1 SLP107 T01610017
10161 20022 58008





000
SAUS43 KBIS 231754
MTRN60
METAR KN60 231752Z AUTO 21009KT 16/02 A2983 RMK AO1 SLP107 T01610017
10161 20022 58008





000
SAUS43 KBIS 231653
MTRN60
METAR KN60 231652Z AUTO 23009KT 12/03 A2985 RMK AO1 SLP119 T01220033





000
SAUS43 KBIS 231653
MTRN60
METAR KN60 231652Z AUTO 23009KT 12/03 A2985 RMK AO1 SLP119 T01220033





000
SAUS43 KBIS 231554
MTRN60
METAR KN60 231552Z AUTO 22006KT 11/04 A2986 RMK AO1 SLP123 T01060039





000
SAUS43 KBIS 231454
MTRN60
METAR KN60 231452Z AUTO 00000KT 07/04 A2986 RMK AO1 SLP122 T00720039
56001





000
SAUS43 KBIS 231454
MTRN60
METAR KN60 231452Z AUTO 00000KT 07/04 A2986 RMK AO1 SLP122 T00720039
56001





000
SAUS43 KBIS 231354
MTRN60
METAR KN60 231352Z AUTO 20003KT 03/02 A2986 RMK AO1 SLP125 T00330017





000
SAUS43 KBIS 231253
MTRN60
METAR KN60 231252Z AUTO 00000KT 04/02 A2986 RMK AO1 SLP120 T00390017





000
SAUS43 KBIS 231154
MTRN60
METAR KN60 231152Z AUTO 21003KT 04/02 A2986 RMK AO1 SLP121 T00390022
10078 20033 58004





000
SAUS43 KBIS 231053
MTRN60
METAR KN60 231052Z AUTO 00000KT 06/03 A2987 RMK AO1 SLP121 T00560028





000
SAUS43 KBIS 230954
MTRN60
METAR KN60 230952Z AUTO 25004KT 05/03 A2987 RMK AO1 SLP121 T00500028





000
SAUS43 KBIS 230954
MTRN60
METAR KN60 230952Z AUTO 25004KT 05/03 A2987 RMK AO1 SLP121 T00500028





000
SAUS43 KBIS 230853
MTRN60
METAR KN60 230852Z AUTO 24007KT 05/03 A2987 RMK AO1 SLP121 T00500028
53001





000
SAUS43 KBIS 230753
MTRN60
METAR KN60 230752Z AUTO 25004KT 05/03 A2987 RMK AO1 SLP119 T00500033





000
SAUS43 KBIS 230753
MTRN60
METAR KN60 230752Z AUTO 25004KT 05/03 A2987 RMK AO1 SLP119 T00500033





000
SAUS43 KBIS 230653
MTRN60
METAR KN60 230652Z AUTO 25005KT 05/02 A2987 RMK AO1 SLP120 T00500022





000
SAUS43 KBIS 230554
MTRN60
METAR KN60 230552Z AUTO 26009KT 07/03 A2987 RMK AO1 SLP121 T00720033
10144 20050 401830050 52000





000
SAUS43 KBIS 230554
MTRN60
METAR KN60 230552Z AUTO 26009KT 07/03 A2987 RMK AO1 SLP121 T00720033
10144 20050 401830050 52000





000
SAUS43 KBIS 230454
MTRN60
METAR KN60 230452Z AUTO 26004KT 06/04 A2987 RMK AO1 SLP123 T00560039





000
SAUS43 KBIS 230454
MTRN60
METAR KN60 230452Z AUTO 26004KT 06/04 A2987 RMK AO1 SLP123 T00560039





000
SAUS43 KBIS 230354
MTRN60
METAR KN60 230352Z AUTO 25006KT 06/03 A2987 RMK AO1 SLP123 T00560033





000
SAUS43 KBIS 230253
MTRN60
METAR KN60 230252Z AUTO 26005KT 07/04 A2987 RMK AO1 SLP123 T00720044
53010





000
SAUS43 KBIS 230154
MTRN60
METAR KN60 230152Z AUTO 23005KT 08/03 A2986 RMK AO1 SLP118 T00780033





000
SAUS43 KBIS 230154
MTRN60
METAR KN60 230152Z AUTO 23005KT 08/03 A2986 RMK AO1 SLP118 T00780033





000
SAUS43 KBIS 230053
MTRN60
METAR KN60 230052Z AUTO 29005KT 12/04 A2985 RMK AO1 SLP112 T01170044





000
SAUS43 KBIS 230053
MTRN60
METAR KN60 230052Z AUTO 29005KT 12/04 A2985 RMK AO1 SLP112 T01170044





000
SAUS43 KBIS 222354
MTRN60
METAR KN60 222352Z AUTO 29007KT 14/05 A2984 RMK AO1 SLP108 T01440050
10183 20144 53013





000
SAUS43 KBIS 222354
MTRN60
METAR KN60 222352Z AUTO 29007KT 14/05 A2984 RMK AO1 SLP108 T01440050
10183 20144 53013





000
SAUS43 KBIS 222254
MTRN60
METAR KN60 222252Z AUTO 29013G22KT 16/05 A2982 RMK AO1 SLP101
T01560050





000
SAUS43 KBIS 222254
MTRN60
METAR KN60 222252Z AUTO 29013G22KT 16/05 A2982 RMK AO1 SLP101
T01560050





000
SAUS43 KBIS 222154
MTRN60
METAR KN60 222152Z AUTO 29017G24KT 17/04 A2980 RMK AO1 PK WND
29027/2120 SLP092 T01720044





000
SAUS43 KBIS 222053
MTRN60
METAR KN60 222052Z AUTO 28018G25KT 18/04 A2980 RMK AO1 SLP090
T01780044 55002





000
SAUS43 KBIS 221954
MTRN60
METAR KN60 221952Z AUTO 26015G22KT 18/04 A2979 RMK AO1 SLP086
T01830044





000
SAUS43 KBIS 221853
MTRN60
METAR KN60 221852Z AUTO 27013G19KT 17/06 A2979 RMK AO1 SLP088
T01670056





000
SAUS43 KBIS 221754
MTRN60
METAR KN60 221752Z AUTO 27015KT 15/06 A2980 RMK AO1 SLP092 T01500056
10150 20106 58000





000
SAUS43 KBIS 221754
MTRN60
METAR KN60 221752Z AUTO 27015KT 15/06 A2980 RMK AO1 SLP092 T01500056
10150 20106 58000





000
SAUS43 KBIS 221654
MTRN60
METAR KN60 221652Z AUTO 27016G22KT 14/06 A2980 RMK AO1 SLP091
T01390061





000
SAUS43 KBIS 221654
MTRN60
METAR KN60 221652Z AUTO 27016G22KT 14/06 A2980 RMK AO1 SLP091
T01390061





000
SAUS43 KBIS 221554
MTRN60
METAR KN60 221552Z AUTO 28018KT 13/07 A2981 RMK AO1 SLP093 T01330067





000
SAUS43 KBIS 221554
MTRN60
METAR KN60 221552Z AUTO 28018KT 13/07 A2981 RMK AO1 SLP093 T01330067





000
SAUS43 KBIS 221453
MTRN60
METAR KN60 221452Z AUTO 27009G19KT 11/07 A2981 RMK AO1 SLP092
T01110072 53022





000
SAUS43 KBIS 221354
MTRN60
METAR KN60 221352Z AUTO 28013G24KT 12/08 A2977 RMK AO1 SLP082
T01170078





000
SAUS43 KBIS 221253
MTRN60
METAR KN60 221252Z AUTO 28014G22KT 11/08 A2976 RMK AO1 SLP076
T01110078





000
SAUS43 KBIS 221154
MTRN60
METAR KN60 221152Z AUTO 28012KT 11/08 A2974 RMK AO1 SLP068 T01110078
10167 20100 53028





000
SAUS43 KBIS 221053
MTRN60
METAR KN60 221052Z AUTO 28013KT 12/08 A2970 RMK AO1 SLP053 T01170078





000
SAUS43 KBIS 220954
MTRN60
METAR KN60 220952Z AUTO 29006KT 13/07 A2967 RMK AO1 SLP042 T01280072





000
SAUS43 KBIS 220954
MTRN60
METAR KN60 220952Z AUTO 29006KT 13/07 A2967 RMK AO1 SLP042 T01280072





000
SAUS43 KBIS 220854
MTRN60
METAR KN60 220852Z AUTO 00000KT 12/09 A2965 RMK AO1 SLP036 T01170094
50007





    US Dept of Commerce
    National Oceanic and Atmospheric Administration
    National Weather Service
    1325 East West Highway
    Silver Spring, MD 20910
    Page Author: NWS Internet Services Team
Disclaimer
Information Quality
Credits
Glossary
Privacy Policy
Freedom of Information Act (FOIA)
About Us
Career Opportunities